sensor_id;sensor_type;location;lat;lon;timestamp;P1;durP1;ratioP1;P2;durP2;ratioP2
7799;SDS011;3944;47.984;7.960;2022-07-29T00:00:13;2.72;;;2.50;;
7799;SDS011;3944;47.984;7.960;2022-07-29T00:02:40;1.98;;;1.83;;
7799;SDS011;3944;47.984;7.960;2022-07-29T00:05:09;2.20;;;2.03;;
7799;SDS011;3944;47.984;7.960;2022-07-29T00:07:38;2.10;;;2.00;;
7799;SDS011;3944;47.984;7.960;2022-07-29T00:10:05;2.42;;;2.22;;
7799;SDS011;3944;47.984;7.960;2022-07-29T00:12:32;1.65;;;1.55;;
7799;SDS011;3944;47.984;7.960;2022-07-29T00:15:00;1.60;;;1.50;;
7799;SDS011;3944;47.984;7.960;2022-07-29T00:17:27;2.10;;;2.00;;
7799;SDS011;3944;47.984;7.960;2022-07-29T00:19:54;2.40;;;2.20;;
7799;SDS011;3944;47.984;7.960;2022-07-29T00:22:22;2.65;;;1.80;;
7799;SDS011;3944;47.984;7.960;2022-07-29T00:24:49;3.47;;;1.80;;
7799;SDS011;3944;47.984;7.960;2022-07-29T00:27:16;2.50;;;2.33;;
7799;SDS011;3944;47.984;7.960;2022-07-29T00:29:44;2.80;;;2.60;;
7799;SDS011;3944;47.984;7.960;2022-07-29T00:32:11;2.05;;;1.92;;
7799;SDS011;3944;47.984;7.960;2022-07-29T00:34:37;2.20;;;1.90;;
7799;SDS011;3944;47.984;7.960;2022-07-29T00:37:23;5.05;;;2.10;;
7799;SDS011;3944;47.984;7.960;2022-07-29T00:39:50;2.25;;;2.15;;
7799;SDS011;3944;47.984;7.960;2022-07-29T00:42:17;2.58;;;2.38;;
7799;SDS011;3944;47.984;7.960;2022-07-29T00:44:44;2.08;;;1.98;;
7799;SDS011;3944;47.984;7.960;2022-07-29T00:47:11;2.70;;;2.50;;
7799;SDS011;3944;47.984;7.960;2022-07-29T00:49:38;2.25;;;2.15;;
7799;SDS011;3944;47.984;7.960;2022-07-29T00:52:07;2.08;;;1.98;;
7799;SDS011;3944;47.984;7.960;2022-07-29T00:54:36;2.58;;;2.42;;
7799;SDS011;3944;47.984;7.960;2022-07-29T00:57:05;8.15;;;2.80;;
7799;SDS011;3944;47.984;7.960;2022-07-29T00:59:33;2.45;;;2.25;;
7799;SDS011;3944;47.984;7.960;2022-07-29T01:02:00;2.42;;;2.22;;
7799;SDS011;3944;47.984;7.960;2022-07-29T01:04:27;2.30;;;2.20;;
7799;SDS011;3944;47.984;7.960;2022-07-29T01:06:54;2.20;;;2.10;;
7799;SDS011;3944;47.984;7.960;2022-07-29T01:09:22;4.30;;;2.10;;
7799;SDS011;3944;47.984;7.960;2022-07-29T01:11:51;2.55;;;2.35;;
7799;SDS011;3944;47.984;7.960;2022-07-29T01:14:18;2.55;;;2.35;;
7799;SDS011;3944;47.984;7.960;2022-07-29T01:16:48;2.53;;;2.33;;
7799;SDS011;3944;47.984;7.960;2022-07-29T01:19:31;2.78;;;2.58;;
7799;SDS011;3944;47.984;7.960;2022-07-29T01:22:08;2.47;;;2.28;;
7799;SDS011;3944;47.984;7.960;2022-07-29T01:24:48;2.28;;;2.17;;
7799;SDS011;3944;47.984;7.960;2022-07-29T01:27:41;2.05;;;1.95;;
7799;SDS011;3944;47.984;7.960;2022-07-29T01:30:18;2.58;;;2.38;;
7799;SDS011;3944;47.984;7.960;2022-07-29T01:32:49;2.78;;;2.58;;
7799;SDS011;3944;47.984;7.960;2022-07-29T01:35:18;2.67;;;2.33;;
7799;SDS011;3944;47.984;7.960;2022-07-29T01:37:50;1.92;;;1.83;;
7799;SDS011;3944;47.984;7.960;2022-07-29T01:40:22;2.47;;;2.28;;
7799;SDS011;3944;47.984;7.960;2022-07-29T01:42:54;2.70;;;2.50;;
7799;SDS011;3944;47.984;7.960;2022-07-29T01:45:26;3.85;;;2.53;;
7799;SDS011;3944;47.984;7.960;2022-07-29T01:48:02;2.42;;;2.25;;
7799;SDS011;3944;47.984;7.960;2022-07-29T01:50:34;3.03;;;2.65;;
7799;SDS011;3944;47.984;7.960;2022-07-29T01:53:04;3.08;;;2.88;;
7799;SDS011;3944;47.984;7.960;2022-07-29T01:55:34;2.63;;;2.42;;
7799;SDS011;3944;47.984;7.960;2022-07-29T01:58:10;3.40;;;2.22;;
7799;SDS011;3944;47.984;7.960;2022-07-29T02:00:40;2.30;;;2.20;;
7799;SDS011;3944;47.984;7.960;2022-07-29T02:03:08;2.55;;;2.38;;
7799;SDS011;3944;47.984;7.960;2022-07-29T02:05:39;2.53;;;2.33;;
7799;SDS011;3944;47.984;7.960;2022-07-29T02:08:08;2.70;;;2.50;;
7799;SDS011;3944;47.984;7.960;2022-07-29T02:10:36;2.63;;;2.42;;
7799;SDS011;3944;47.984;7.960;2022-07-29T02:13:06;2.28;;;2.10;;
7799;SDS011;3944;47.984;7.960;2022-07-29T02:15:35;2.47;;;2.13;;
7799;SDS011;3944;47.984;7.960;2022-07-29T02:18:05;3.70;;;2.33;;
7799;SDS011;3944;47.984;7.960;2022-07-29T02:20:35;2.28;;;2.17;;
7799;SDS011;3944;47.984;7.960;2022-07-29T02:23:03;2.55;;;2.17;;
7799;SDS011;3944;47.984;7.960;2022-07-29T02:25:32;2.83;;;2.63;;
7799;SDS011;3944;47.984;7.960;2022-07-29T02:27:59;2.08;;;1.98;;
7799;SDS011;3944;47.984;7.960;2022-07-29T02:30:26;2.42;;;2.28;;
7799;SDS011;3944;47.984;7.960;2022-07-29T02:32:55;2.83;;;2.60;;
7799;SDS011;3944;47.984;7.960;2022-07-29T02:35:25;2.05;;;1.95;;
7799;SDS011;3944;47.984;7.960;2022-07-29T02:37:53;2.50;;;2.30;;
7799;SDS011;3944;47.984;7.960;2022-07-29T02:40:38;1.88;;;1.77;;
7799;SDS011;3944;47.984;7.960;2022-07-29T02:43:08;2.88;;;2.67;;
7799;SDS011;3944;47.984;7.960;2022-07-29T02:45:36;2.78;;;2.58;;
7799;SDS011;3944;47.984;7.960;2022-07-29T02:48:05;2.17;;;2.08;;
7799;SDS011;3944;47.984;7.960;2022-07-29T02:50:38;2.00;;;1.90;;
7799;SDS011;3944;47.984;7.960;2022-07-29T02:53:12;2.10;;;2.00;;
7799;SDS011;3944;47.984;7.960;2022-07-29T02:55:44;2.92;;;2.72;;
7799;SDS011;3944;47.984;7.960;2022-07-29T02:58:15;3.80;;;2.85;;
7799;SDS011;3944;47.984;7.960;2022-07-29T03:00:48;2.25;;;2.15;;
7799;SDS011;3944;47.984;7.960;2022-07-29T03:03:17;4.00;;;2.92;;
7799;SDS011;3944;47.984;7.960;2022-07-29T03:05:48;2.88;;;2.63;;
7799;SDS011;3944;47.984;7.960;2022-07-29T03:08:15;2.42;;;2.25;;
7799;SDS011;3944;47.984;7.960;2022-07-29T03:10:43;2.47;;;2.33;;
7799;SDS011;3944;47.984;7.960;2022-07-29T03:13:12;2.22;;;2.00;;
7799;SDS011;3944;47.984;7.960;2022-07-29T03:15:39;2.83;;;2.60;;
7799;SDS011;3944;47.984;7.960;2022-07-29T03:18:08;2.67;;;2.47;;
7799;SDS011;3944;47.984;7.960;2022-07-29T03:20:36;2.65;;;2.45;;
7799;SDS011;3944;47.984;7.960;2022-07-29T03:23:05;2.92;;;2.70;;
7799;SDS011;3944;47.984;7.960;2022-07-29T03:25:32;2.10;;;2.00;;
7799;SDS011;3944;47.984;7.960;2022-07-29T03:27:59;2.63;;;2.42;;
7799;SDS011;3944;47.984;7.960;2022-07-29T03:30:26;2.38;;;2.28;;
7799;SDS011;3944;47.984;7.960;2022-07-29T03:32:55;2.20;;;2.10;;
7799;SDS011;3944;47.984;7.960;2022-07-29T03:35:22;2.20;;;2.10;;
7799;SDS011;3944;47.984;7.960;2022-07-29T03:37:49;2.85;;;2.65;;
7799;SDS011;3944;47.984;7.960;2022-07-29T03:40:18;2.80;;;2.60;;
7799;SDS011;3944;47.984;7.960;2022-07-29T03:42:48;2.17;;;2.08;;
7799;SDS011;3944;47.984;7.960;2022-07-29T03:45:18;3.03;;;2.10;;
7799;SDS011;3944;47.984;7.960;2022-07-29T03:47:47;2.70;;;2.50;;
7799;SDS011;3944;47.984;7.960;2022-07-29T03:50:16;3.45;;;2.83;;
7799;SDS011;3944;47.984;7.960;2022-07-29T03:52:46;2.42;;;2.22;;
7799;SDS011;3944;47.984;7.960;2022-07-29T03:55:13;2.40;;;2.20;;
7799;SDS011;3944;47.984;7.960;2022-07-29T03:57:43;2.05;;;1.95;;
7799;SDS011;3944;47.984;7.960;2022-07-29T04:00:11;2.50;;;2.38;;
7799;SDS011;3944;47.984;7.960;2022-07-29T04:02:38;2.72;;;2.53;;
7799;SDS011;3944;47.984;7.960;2022-07-29T04:05:11;3.47;;;3.00;;
7799;SDS011;3944;47.984;7.960;2022-07-29T04:07:38;3.47;;;3.20;;
7799;SDS011;3944;47.984;7.960;2022-07-29T04:10:06;4.07;;;3.40;;
7799;SDS011;3944;47.984;7.960;2022-07-29T04:12:33;2.83;;;2.38;;
7799;SDS011;3944;47.984;7.960;2022-07-29T04:15:01;4.93;;;2.20;;
7799;SDS011;3944;47.984;7.960;2022-07-29T04:17:28;2.80;;;2.60;;
7799;SDS011;3944;47.984;7.960;2022-07-29T04:19:55;2.90;;;2.70;;
7799;SDS011;3944;47.984;7.960;2022-07-29T04:22:22;2.90;;;2.70;;
7799;SDS011;3944;47.984;7.960;2022-07-29T04:24:49;3.38;;;3.08;;
7799;SDS011;3944;47.984;7.960;2022-07-29T04:27:16;2.70;;;2.50;;
7799;SDS011;3944;47.984;7.960;2022-07-29T04:29:43;2.25;;;2.15;;
7799;SDS011;3944;47.984;7.960;2022-07-29T04:32:11;3.13;;;2.70;;
7799;SDS011;3944;47.984;7.960;2022-07-29T04:34:38;2.17;;;2.00;;
7799;SDS011;3944;47.984;7.960;2022-07-29T04:37:05;2.17;;;2.08;;
7799;SDS011;3944;47.984;7.960;2022-07-29T04:39:31;2.20;;;2.10;;
7799;SDS011;3944;47.984;7.960;2022-07-29T04:41:58;2.88;;;2.63;;
7799;SDS011;3944;47.984;7.960;2022-07-29T04:44:25;2.85;;;2.55;;
7799;SDS011;3944;47.984;7.960;2022-07-29T04:46:53;2.97;;;2.75;;
7799;SDS011;3944;47.984;7.960;2022-07-29T04:49:21;2.63;;;2.50;;
7799;SDS011;3944;47.984;7.960;2022-07-29T04:51:48;2.40;;;2.20;;
7799;SDS011;3944;47.984;7.960;2022-07-29T04:54:15;11.43;;;2.95;;
7799;SDS011;3944;47.984;7.960;2022-07-29T04:56:42;3.80;;;2.50;;
7799;SDS011;3944;47.984;7.960;2022-07-29T04:59:08;2.08;;;1.98;;
7799;SDS011;3944;47.984;7.960;2022-07-29T05:01:35;2.40;;;2.30;;
7799;SDS011;3944;47.984;7.960;2022-07-29T05:04:02;2.50;;;2.30;;
7799;SDS011;3944;47.984;7.960;2022-07-29T05:06:30;9.00;;;3.22;;
7799;SDS011;3944;47.984;7.960;2022-07-29T05:08:57;1.70;;;1.60;;
7799;SDS011;3944;47.984;7.960;2022-07-29T05:11:24;2.40;;;2.20;;
7799;SDS011;3944;47.984;7.960;2022-07-29T05:13:51;1.92;;;1.83;;
7799;SDS011;3944;47.984;7.960;2022-07-29T05:16:18;2.92;;;2.65;;
7799;SDS011;3944;47.984;7.960;2022-07-29T05:18:44;2.67;;;2.47;;
7799;SDS011;3944;47.984;7.960;2022-07-29T05:21:11;2.50;;;2.30;;
7799;SDS011;3944;47.984;7.960;2022-07-29T05:23:39;2.85;;;2.65;;
7799;SDS011;3944;47.984;7.960;2022-07-29T05:26:06;2.67;;;2.47;;
7799;SDS011;3944;47.984;7.960;2022-07-29T05:28:33;2.25;;;2.15;;
7799;SDS011;3944;47.984;7.960;2022-07-29T05:31:00;3.08;;;2.03;;
7799;SDS011;3944;47.984;7.960;2022-07-29T05:33:27;3.33;;;3.03;;
7799;SDS011;3944;47.984;7.960;2022-07-29T05:35:54;3.83;;;2.60;;
7799;SDS011;3944;47.984;7.960;2022-07-29T05:38:20;3.13;;;2.92;;
7799;SDS011;3944;47.984;7.960;2022-07-29T05:40:49;2.83;;;2.63;;
7799;SDS011;3944;47.984;7.960;2022-07-29T05:43:15;2.58;;;2.28;;
7799;SDS011;3944;47.984;7.960;2022-07-29T05:45:42;2.45;;;2.28;;
7799;SDS011;3944;47.984;7.960;2022-07-29T05:48:09;3.88;;;3.05;;
7799;SDS011;3944;47.984;7.960;2022-07-29T05:50:36;2.63;;;2.42;;
7799;SDS011;3944;47.984;7.960;2022-07-29T05:53:03;2.40;;;2.20;;
7799;SDS011;3944;47.984;7.960;2022-07-29T05:55:29;2.65;;;2.45;;
7799;SDS011;3944;47.984;7.960;2022-07-29T05:57:58;2.63;;;2.42;;
7799;SDS011;3944;47.984;7.960;2022-07-29T06:00:25;5.57;;;3.15;;
7799;SDS011;3944;47.984;7.960;2022-07-29T06:02:51;2.45;;;2.25;;
7799;SDS011;3944;47.984;7.960;2022-07-29T06:05:18;2.33;;;2.13;;
7799;SDS011;3944;47.984;7.960;2022-07-29T06:07:45;2.78;;;2.58;;
7799;SDS011;3944;47.984;7.960;2022-07-29T06:10:12;2.63;;;2.42;;
7799;SDS011;3944;47.984;7.960;2022-07-29T06:12:39;4.13;;;2.67;;
7799;SDS011;3944;47.984;7.960;2022-07-29T06:15:08;2.90;;;2.55;;
7799;SDS011;3944;47.984;7.960;2022-07-29T06:17:35;2.97;;;2.78;;
7799;SDS011;3944;47.984;7.960;2022-07-29T06:20:02;5.60;;;2.88;;
7799;SDS011;3944;47.984;7.960;2022-07-29T06:22:30;2.72;;;2.53;;
7799;SDS011;3944;47.984;7.960;2022-07-29T06:24:56;2.85;;;2.55;;
7799;SDS011;3944;47.984;7.960;2022-07-29T06:27:23;3.90;;;2.63;;
7799;SDS011;3944;47.984;7.960;2022-07-29T06:29:50;2.00;;;1.90;;
7799;SDS011;3944;47.984;7.960;2022-07-29T06:32:18;3.13;;;2.40;;
7799;SDS011;3944;47.984;7.960;2022-07-29T06:34:46;1.88;;;1.77;;
7799;SDS011;3944;47.984;7.960;2022-07-29T06:37:13;2.22;;;2.13;;
7799;SDS011;3944;47.984;7.960;2022-07-29T06:39:40;2.55;;;2.35;;
7799;SDS011;3944;47.984;7.960;2022-07-29T06:42:07;4.00;;;2.30;;
7799;SDS011;3944;47.984;7.960;2022-07-29T06:44:34;2.25;;;2.13;;
7799;SDS011;3944;47.984;7.960;2022-07-29T06:47:01;2.03;;;1.92;;
7799;SDS011;3944;47.984;7.960;2022-07-29T06:49:30;3.05;;;1.65;;
7799;SDS011;3944;47.984;7.960;2022-07-29T06:51:56;1.88;;;1.77;;
7799;SDS011;3944;47.984;7.960;2022-07-29T06:54:23;2.00;;;1.90;;
7799;SDS011;3944;47.984;7.960;2022-07-29T06:56:50;4.78;;;2.00;;
7799;SDS011;3944;47.984;7.960;2022-07-29T06:59:17;2.50;;;2.03;;
7799;SDS011;3944;47.984;7.960;2022-07-29T07:01:44;1.95;;;1.85;;
7799;SDS011;3944;47.984;7.960;2022-07-29T07:04:11;2.08;;;1.98;;
7799;SDS011;3944;47.984;7.960;2022-07-29T07:06:39;2.30;;;1.77;;
7799;SDS011;3944;47.984;7.960;2022-07-29T07:09:06;2.60;;;2.40;;
7799;SDS011;3944;47.984;7.960;2022-07-29T07:11:33;2.13;;;2.03;;
7799;SDS011;3944;47.984;7.960;2022-07-29T07:14:00;1.92;;;1.83;;
7799;SDS011;3944;47.984;7.960;2022-07-29T07:16:27;2.20;;;2.05;;
7799;SDS011;3944;47.984;7.960;2022-07-29T07:18:54;2.00;;;1.90;;
7799;SDS011;3944;47.984;7.960;2022-07-29T07:21:20;2.08;;;1.90;;
7799;SDS011;3944;47.984;7.960;2022-07-29T07:23:48;2.08;;;1.98;;
7799;SDS011;3944;47.984;7.960;2022-07-29T07:26:15;2.97;;;1.70;;
7799;SDS011;3944;47.984;7.960;2022-07-29T07:28:42;1.90;;;1.80;;
7799;SDS011;3944;47.984;7.960;2022-07-29T07:31:09;2.22;;;2.13;;
7799;SDS011;3944;47.984;7.960;2022-07-29T07:33:36;1.80;;;1.70;;
7799;SDS011;3944;47.984;7.960;2022-07-29T07:36:03;2.78;;;1.58;;
7799;SDS011;3944;47.984;7.960;2022-07-29T07:38:30;2.20;;;2.05;;
7799;SDS011;3944;47.984;7.960;2022-07-29T07:40:58;2.25;;;2.05;;
7799;SDS011;3944;47.984;7.960;2022-07-29T07:43:26;2.17;;;2.08;;
7799;SDS011;3944;47.984;7.960;2022-07-29T07:45:53;2.05;;;1.95;;
7799;SDS011;3944;47.984;7.960;2022-07-29T07:48:19;3.50;;;2.30;;
7799;SDS011;3944;47.984;7.960;2022-07-29T07:50:46;2.28;;;2.08;;
7799;SDS011;3944;47.984;7.960;2022-07-29T07:53:14;6.50;;;2.45;;
7799;SDS011;3944;47.984;7.960;2022-07-29T07:55:41;2.15;;;2.05;;
7799;SDS011;3944;47.984;7.960;2022-07-29T07:58:10;2.33;;;2.10;;
7799;SDS011;3944;47.984;7.960;2022-07-29T08:00:37;2.78;;;2.58;;
7799;SDS011;3944;47.984;7.960;2022-07-29T08:03:04;2.35;;;2.20;;
7799;SDS011;3944;47.984;7.960;2022-07-29T08:05:31;3.10;;;2.35;;
7799;SDS011;3944;47.984;7.960;2022-07-29T08:07:58;1.85;;;1.73;;
7799;SDS011;3944;47.984;7.960;2022-07-29T08:10:24;2.00;;;1.75;;
7799;SDS011;3944;47.984;7.960;2022-07-29T08:13:16;2.17;;;2.08;;
7799;SDS011;3944;47.984;7.960;2022-07-29T08:15:42;2.90;;;2.05;;
7799;SDS011;3944;47.984;7.960;2022-07-29T08:18:10;3.03;;;2.75;;
7799;SDS011;3944;47.984;7.960;2022-07-29T08:20:37;3.30;;;2.70;;
7799;SDS011;3944;47.984;7.960;2022-07-29T08:23:05;2.70;;;2.50;;
7799;SDS011;3944;47.984;7.960;2022-07-29T08:25:34;5.72;;;2.05;;
7799;SDS011;3944;47.984;7.960;2022-07-29T08:28:01;2.00;;;1.90;;
7799;SDS011;3944;47.984;7.960;2022-07-29T08:30:30;2.55;;;2.38;;
7799;SDS011;3944;47.984;7.960;2022-07-29T08:32:57;2.85;;;2.65;;
7799;SDS011;3944;47.984;7.960;2022-07-29T08:35:24;2.58;;;2.25;;
7799;SDS011;3944;47.984;7.960;2022-07-29T08:37:51;2.33;;;2.10;;
7799;SDS011;3944;47.984;7.960;2022-07-29T08:40:18;2.50;;;2.35;;
7799;SDS011;3944;47.984;7.960;2022-07-29T08:42:46;2.22;;;2.13;;
7799;SDS011;3944;47.984;7.960;2022-07-29T08:45:13;2.22;;;2.03;;
7799;SDS011;3944;47.984;7.960;2022-07-29T08:47:41;1.77;;;1.67;;
7799;SDS011;3944;47.984;7.960;2022-07-29T08:50:10;2.20;;;2.10;;
7799;SDS011;3944;47.984;7.960;2022-07-29T08:52:38;5.03;;;2.55;;
7799;SDS011;3944;47.984;7.960;2022-07-29T08:55:07;1.95;;;1.85;;
7799;SDS011;3944;47.984;7.960;2022-07-29T08:57:35;3.65;;;2.10;;
7799;SDS011;3944;47.984;7.960;2022-07-29T09:00:05;2.30;;;2.08;;
7799;SDS011;3944;47.984;7.960;2022-07-29T09:02:35;1.85;;;1.75;;
7799;SDS011;3944;47.984;7.960;2022-07-29T09:05:06;2.00;;;1.80;;
7799;SDS011;3944;47.984;7.960;2022-07-29T09:07:34;2.00;;;1.90;;
7799;SDS011;3944;47.984;7.960;2022-07-29T09:10:03;2.10;;;1.98;;
7799;SDS011;3944;47.984;7.960;2022-07-29T09:12:31;2.63;;;2.42;;
7799;SDS011;3944;47.984;7.960;2022-07-29T09:14:58;1.98;;;1.88;;
7799;SDS011;3944;47.984;7.960;2022-07-29T09:17:40;2.40;;;2.20;;
7799;SDS011;3944;47.984;7.960;2022-07-29T09:20:10;2.20;;;1.98;;
7799;SDS011;3944;47.984;7.960;2022-07-29T09:22:39;2.33;;;2.13;;
7799;SDS011;3944;47.984;7.960;2022-07-29T09:25:06;2.10;;;2.00;;
7799;SDS011;3944;47.984;7.960;2022-07-29T09:27:33;2.45;;;2.25;;
7799;SDS011;3944;47.984;7.960;2022-07-29T09:30:01;4.35;;;2.30;;
7799;SDS011;3944;47.984;7.960;2022-07-29T09:32:31;2.00;;;1.90;;
7799;SDS011;3944;47.984;7.960;2022-07-29T09:35:15;2.90;;;2.03;;
7799;SDS011;3944;47.984;7.960;2022-07-29T09:37:43;1.98;;;1.88;;
7799;SDS011;3944;47.984;7.960;2022-07-29T09:40:11;1.83;;;1.73;;
7799;SDS011;3944;47.984;7.960;2022-07-29T09:42:40;2.30;;;2.20;;
7799;SDS011;3944;47.984;7.960;2022-07-29T09:45:08;2.20;;;1.98;;
7799;SDS011;3944;47.984;7.960;2022-07-29T09:47:43;3.20;;;1.63;;
7799;SDS011;3944;47.984;7.960;2022-07-29T09:50:15;4.38;;;2.10;;
7799;SDS011;3944;47.984;7.960;2022-07-29T09:52:45;3.10;;;2.10;;
7799;SDS011;3944;47.984;7.960;2022-07-29T09:55:13;6.10;;;2.47;;
7799;SDS011;3944;47.984;7.960;2022-07-29T09:57:40;3.38;;;1.67;;
7799;SDS011;3944;47.984;7.960;2022-07-29T10:00:08;1.80;;;1.70;;
7799;SDS011;3944;47.984;7.960;2022-07-29T10:02:37;1.80;;;1.70;;
7799;SDS011;3944;47.984;7.960;2022-07-29T10:05:06;3.00;;;2.30;;
7799;SDS011;3944;47.984;7.960;2022-07-29T10:07:45;1.85;;;1.75;;
7799;SDS011;3944;47.984;7.960;2022-07-29T10:10:18;2.33;;;2.13;;
7799;SDS011;3944;47.984;7.960;2022-07-29T10:12:49;1.92;;;1.80;;
7799;SDS011;3944;47.984;7.960;2022-07-29T10:15:18;2.42;;;2.17;;
7799;SDS011;3944;47.984;7.960;2022-07-29T10:17:47;2.20;;;1.95;;
7799;SDS011;3944;47.984;7.960;2022-07-29T10:20:14;2.25;;;2.08;;
7799;SDS011;3944;47.984;7.960;2022-07-29T10:22:43;1.75;;;1.65;;
7799;SDS011;3944;47.984;7.960;2022-07-29T10:25:12;1.63;;;1.52;;
7799;SDS011;3944;47.984;7.960;2022-07-29T10:27:40;2.13;;;2.00;;
7799;SDS011;3944;47.984;7.960;2022-07-29T10:30:07;1.45;;;1.42;;
7799;SDS011;3944;47.984;7.960;2022-07-29T10:32:39;3.05;;;1.92;;
7799;SDS011;3944;47.984;7.960;2022-07-29T10:35:38;1.60;;;1.50;;
7799;SDS011;3944;47.984;7.960;2022-07-29T10:38:19;2.25;;;2.05;;
7799;SDS011;3944;47.984;7.960;2022-07-29T10:41:00;1.77;;;1.67;;
7799;SDS011;3944;47.984;7.960;2022-07-29T10:43:54;1.67;;;1.58;;
7799;SDS011;3944;47.984;7.960;2022-07-29T10:46:24;1.50;;;1.40;;
7799;SDS011;3944;47.984;7.960;2022-07-29T10:49:04;1.52;;;1.42;;
7799;SDS011;3944;47.984;7.960;2022-07-29T10:51:54;3.53;;;2.15;;
7799;SDS011;3944;47.984;7.960;2022-07-29T10:54:43;1.60;;;1.50;;
7799;SDS011;3944;47.984;7.960;2022-07-29T10:57:13;1.45;;;1.35;;
7799;SDS011;3944;47.984;7.960;2022-07-29T10:59:45;2.00;;;1.90;;
7799;SDS011;3944;47.984;7.960;2022-07-29T11:05:08;2.70;;;1.92;;
7799;SDS011;3944;47.984;7.960;2022-07-29T11:07:37;2.28;;;1.73;;
7799;SDS011;3944;47.984;7.960;2022-07-29T11:10:23;1.50;;;1.40;;
7799;SDS011;3944;47.984;7.960;2022-07-29T11:12:50;1.83;;;1.73;;
7799;SDS011;3944;47.984;7.960;2022-07-29T11:15:17;8.15;;;2.30;;
7799;SDS011;3944;47.984;7.960;2022-07-29T11:18:05;2.60;;;1.55;;
7799;SDS011;3944;47.984;7.960;2022-07-29T11:20:34;1.70;;;1.60;;
7799;SDS011;3944;47.984;7.960;2022-07-29T11:23:21;1.55;;;1.45;;
7799;SDS011;3944;47.984;7.960;2022-07-29T11:28:54;1.60;;;1.50;;
7799;SDS011;3944;47.984;7.960;2022-07-29T11:34:17;1.55;;;1.45;;
7799;SDS011;3944;47.984;7.960;2022-07-29T11:39:41;1.38;;;1.27;;
7799;SDS011;3944;47.984;7.960;2022-07-29T11:45:16;1.70;;;1.38;;
7799;SDS011;3944;47.984;7.960;2022-07-29T11:47:57;1.50;;;1.40;;
7799;SDS011;3944;47.984;7.960;2022-07-29T11:50:32;1.92;;;1.83;;
7799;SDS011;3944;47.984;7.960;2022-07-29T11:53:02;1.42;;;1.33;;
7799;SDS011;3944;47.984;7.960;2022-07-29T11:55:30;1.88;;;1.58;;
7799;SDS011;3944;47.984;7.960;2022-07-29T11:58:02;1.30;;;1.30;;
7799;SDS011;3944;47.984;7.960;2022-07-29T12:00:30;1.48;;;1.38;;
7799;SDS011;3944;47.984;7.960;2022-07-29T12:02:58;1.42;;;1.33;;
7799;SDS011;3944;47.984;7.960;2022-07-29T12:05:35;2.47;;;1.50;;
7799;SDS011;3944;47.984;7.960;2022-07-29T12:08:06;1.77;;;1.67;;
7799;SDS011;3944;47.984;7.960;2022-07-29T12:10:35;1.40;;;1.30;;
7799;SDS011;3944;47.984;7.960;2022-07-29T12:13:03;1.10;;;1.10;;
7799;SDS011;3944;47.984;7.960;2022-07-29T12:15:31;1.30;;;1.20;;
7799;SDS011;3944;47.984;7.960;2022-07-29T12:17:58;1.58;;;1.48;;
7799;SDS011;3944;47.984;7.960;2022-07-29T12:20:25;1.52;;;1.42;;
7799;SDS011;3944;47.984;7.960;2022-07-29T12:22:54;3.35;;;1.85;;
7799;SDS011;3944;47.984;7.960;2022-07-29T12:25:22;1.55;;;1.45;;
7799;SDS011;3944;47.984;7.960;2022-07-29T12:27:58;1.60;;;1.50;;
7799;SDS011;3944;47.984;7.960;2022-07-29T12:30:35;2.35;;;1.70;;
7799;SDS011;3944;47.984;7.960;2022-07-29T12:33:10;1.73;;;1.60;;
7799;SDS011;3944;47.984;7.960;2022-07-29T12:35:38;4.85;;;1.58;;
7799;SDS011;3944;47.984;7.960;2022-07-29T12:38:05;1.67;;;1.58;;
7799;SDS011;3944;47.984;7.960;2022-07-29T12:40:33;1.70;;;1.60;;
7799;SDS011;3944;47.984;7.960;2022-07-29T12:43:07;3.47;;;2.00;;
7799;SDS011;3944;47.984;7.960;2022-07-29T12:45:36;1.60;;;1.50;;
7799;SDS011;3944;47.984;7.960;2022-07-29T12:48:04;2.47;;;1.10;;
7799;SDS011;3944;47.984;7.960;2022-07-29T12:50:33;1.70;;;1.60;;
7799;SDS011;3944;47.984;7.960;2022-07-29T12:53:10;1.67;;;1.58;;
7799;SDS011;3944;47.984;7.960;2022-07-29T12:55:39;1.50;;;1.40;;
7799;SDS011;3944;47.984;7.960;2022-07-29T12:58:09;1.58;;;1.48;;
7799;SDS011;3944;47.984;7.960;2022-07-29T13:00:37;1.58;;;1.48;;
7799;SDS011;3944;47.984;7.960;2022-07-29T13:03:04;1.63;;;1.50;;
7799;SDS011;3944;47.984;7.960;2022-07-29T13:05:41;1.38;;;1.27;;
7799;SDS011;3944;47.984;7.960;2022-07-29T13:08:10;1.50;;;1.40;;
7799;SDS011;3944;47.984;7.960;2022-07-29T13:10:38;1.50;;;1.40;;
7799;SDS011;3944;47.984;7.960;2022-07-29T13:13:06;1.48;;;1.38;;
7799;SDS011;3944;47.984;7.960;2022-07-29T13:15:35;1.23;;;1.20;;
7799;SDS011;3944;47.984;7.960;2022-07-29T13:18:05;1.48;;;1.38;;
7799;SDS011;3944;47.984;7.960;2022-07-29T13:20:52;1.70;;;1.05;;
7799;SDS011;3944;47.984;7.960;2022-07-29T13:23:19;1.35;;;1.25;;
7799;SDS011;3944;47.984;7.960;2022-07-29T13:25:46;2.60;;;1.67;;
7799;SDS011;3944;47.984;7.960;2022-07-29T13:28:12;1.40;;;1.30;;
7799;SDS011;3944;47.984;7.960;2022-07-29T13:30:41;2.05;;;1.95;;
7799;SDS011;3944;47.984;7.960;2022-07-29T13:33:07;1.13;;;1.13;;
7799;SDS011;3944;47.984;7.960;2022-07-29T13:35:34;1.38;;;1.30;;
7799;SDS011;3944;47.984;7.960;2022-07-29T13:38:02;1.10;;;1.10;;
7799;SDS011;3944;47.984;7.960;2022-07-29T13:40:29;1.33;;;1.30;;
7799;SDS011;3944;47.984;7.960;2022-07-29T13:42:55;1.08;;;1.08;;
7799;SDS011;3944;47.984;7.960;2022-07-29T13:45:22;5.75;;;1.55;;
7799;SDS011;3944;47.984;7.960;2022-07-29T13:47:51;1.73;;;1.60;;
7799;SDS011;3944;47.984;7.960;2022-07-29T13:50:18;1.55;;;1.45;;
7799;SDS011;3944;47.984;7.960;2022-07-29T13:52:44;2.00;;;1.67;;
7799;SDS011;3944;47.984;7.960;2022-07-29T13:55:13;3.75;;;1.30;;
7799;SDS011;3944;47.984;7.960;2022-07-29T13:57:40;1.25;;;1.23;;
7799;SDS011;3944;47.984;7.960;2022-07-29T14:00:07;1.38;;;1.30;;
7799;SDS011;3944;47.984;7.960;2022-07-29T14:02:35;1.17;;;1.15;;
7799;SDS011;3944;47.984;7.960;2022-07-29T14:05:05;1.88;;;1.77;;
7799;SDS011;3944;47.984;7.960;2022-07-29T14:07:32;1.63;;;1.27;;
7799;SDS011;3944;47.984;7.960;2022-07-29T14:10:00;1.45;;;1.35;;
7799;SDS011;3944;47.984;7.960;2022-07-29T14:12:27;1.30;;;1.20;;
7799;SDS011;3944;47.984;7.960;2022-07-29T14:14:56;1.35;;;1.35;;
7799;SDS011;3944;47.984;7.960;2022-07-29T14:17:23;1.35;;;1.25;;
7799;SDS011;3944;47.984;7.960;2022-07-29T14:19:50;2.88;;;1.13;;
7799;SDS011;3944;47.984;7.960;2022-07-29T14:22:18;0.98;;;0.98;;
7799;SDS011;3944;47.984;7.960;2022-07-29T14:24:45;1.42;;;1.35;;
7799;SDS011;3944;47.984;7.960;2022-07-29T14:27:12;1.73;;;1.42;;
7799;SDS011;3944;47.984;7.960;2022-07-29T14:29:39;1.63;;;1.33;;
7799;SDS011;3944;47.984;7.960;2022-07-29T14:32:06;1.25;;;1.25;;
7799;SDS011;3944;47.984;7.960;2022-07-29T14:34:34;0.90;;;0.90;;
7799;SDS011;3944;47.984;7.960;2022-07-29T14:37:01;1.25;;;1.15;;
7799;SDS011;3944;47.984;7.960;2022-07-29T14:39:31;1.55;;;1.45;;
7799;SDS011;3944;47.984;7.960;2022-07-29T14:41:58;1.23;;;1.17;;
7799;SDS011;3944;47.984;7.960;2022-07-29T14:44:25;1.13;;;1.13;;
7799;SDS011;3944;47.984;7.960;2022-07-29T14:46:56;1.30;;;1.27;;
7799;SDS011;3944;47.984;7.960;2022-07-29T14:49:24;1.88;;;1.17;;
7799;SDS011;3944;47.984;7.960;2022-07-29T14:51:51;1.40;;;1.30;;
7799;SDS011;3944;47.984;7.960;2022-07-29T14:54:18;1.48;;;1.45;;
7799;SDS011;3944;47.984;7.960;2022-07-29T14:56:46;0.98;;;0.98;;
7799;SDS011;3944;47.984;7.960;2022-07-29T14:59:14;1.33;;;1.23;;
7799;SDS011;3944;47.984;7.960;2022-07-29T15:01:41;1.00;;;1.00;;
7799;SDS011;3944;47.984;7.960;2022-07-29T15:04:08;1.77;;;1.20;;
7799;SDS011;3944;47.984;7.960;2022-07-29T15:06:35;1.25;;;1.15;;
7799;SDS011;3944;47.984;7.960;2022-07-29T15:09:02;1.02;;;0.90;;
7799;SDS011;3944;47.984;7.960;2022-07-29T15:11:29;1.42;;;1.38;;
7799;SDS011;3944;47.984;7.960;2022-07-29T15:13:58;1.10;;;1.10;;
7799;SDS011;3944;47.984;7.960;2022-07-29T15:16:24;6.43;;;1.33;;
7799;SDS011;3944;47.984;7.960;2022-07-29T15:18:51;1.35;;;1.25;;
7799;SDS011;3944;47.984;7.960;2022-07-29T15:21:18;1.10;;;1.10;;
7799;SDS011;3944;47.984;7.960;2022-07-29T15:23:45;1.27;;;1.17;;
7799;SDS011;3944;47.984;7.960;2022-07-29T15:26:12;1.30;;;1.20;;
7799;SDS011;3944;47.984;7.960;2022-07-29T15:28:39;1.20;;;1.20;;
7799;SDS011;3944;47.984;7.960;2022-07-29T15:31:07;0.88;;;0.88;;
7799;SDS011;3944;47.984;7.960;2022-07-29T15:33:35;1.10;;;1.10;;
7799;SDS011;3944;47.984;7.960;2022-07-29T15:36:02;1.27;;;1.27;;
7799;SDS011;3944;47.984;7.960;2022-07-29T15:38:30;1.00;;;1.00;;
7799;SDS011;3944;47.984;7.960;2022-07-29T15:40:57;1.08;;;1.00;;